createdAt,value
2023-05-08T00:01:06.288Z,73.97
2023-05-08T00:03:32.822Z,74.03
2023-05-08T00:05:59.419Z,73.91
2023-05-08T00:08:26.113Z,73.93
2023-05-08T00:10:52.638Z,74.50
2023-05-08T00:13:19.124Z,74.99
2023-05-08T00:15:45.987Z,74.97
2023-05-08T00:18:12.528Z,74.85
2023-05-08T00:20:38.938Z,75.70
2023-05-08T00:23:05.385Z,75.76
2023-05-08T00:25:32.056Z,75.83
2023-05-08T00:27:59.060Z,76.11
2023-05-08T00:30:26.025Z,76.16
2023-05-08T00:32:52.799Z,76.47
2023-05-08T00:35:19.715Z,76.79
2023-05-08T00:37:46.132Z,77.34
2023-05-08T00:40:12.721Z,77.21
2023-05-08T00:42:39.766Z,76.88
2023-05-08T00:45:06.689Z,77.33
2023-05-08T00:47:33.518Z,77.55
2023-05-08T00:50:00.620Z,77.96
2023-05-08T00:52:30.798Z,77.80
2023-05-08T00:54:57.512Z,78.60
2023-05-08T00:57:24.819Z,78.36
2023-05-08T00:59:52.537Z,79.17
2023-05-08T01:02:19.315Z,79.17
2023-05-08T01:04:46.191Z,78.90
2023-05-08T01:07:12.706Z,79.17
2023-05-08T01:09:39.685Z,79.68
2023-05-08T01:12:12.208Z,79.50
2023-05-08T01:14:56.295Z,80.24
2023-05-08T01:17:30.875Z,80.54
2023-05-08T01:20:19.375Z,80.15
2023-05-08T01:23:14.286Z,80.60
2023-05-08T01:26:04.875Z,80.68
2023-05-08T01:28:53.089Z,81.28
2023-05-08T01:31:49.348Z,81.23
2023-05-08T01:34:23.570Z,81.74
2023-05-08T01:37:05.432Z,81.86
2023-05-08T01:39:39.266Z,81.48
2023-05-08T01:42:18.293Z,81.98
2023-05-08T01:44:52.034Z,81.95
2023-05-08T01:47:24.042Z,81.38
2023-05-08T01:49:58.870Z,81.59
2023-05-08T01:52:34.485Z,81.38
2023-05-08T01:55:08.791Z,81.73
2023-05-08T01:57:38.310Z,82.20
2023-05-08T02:00:05.034Z,82.07
2023-05-08T02:02:34.327Z,82.30
2023-05-08T02:05:04.883Z,82.73
2023-05-08T02:07:35.116Z,82.30
2023-05-08T02:10:03.802Z,82.65
2023-05-08T02:12:32.404Z,82.46
2023-05-08T02:15:00.698Z,82.70
2023-05-08T02:17:28.933Z,82.84
2023-05-08T02:19:58.368Z,82.48
2023-05-08T02:22:25.545Z,82.07
2023-05-08T02:24:55.616Z,82.48
2023-05-08T02:27:24.404Z,82.51
2023-05-08T02:29:52.091Z,82.90
2023-05-08T02:32:20.861Z,82.36
2023-05-08T02:35:02.401Z,82.36
2023-05-08T02:37:31.553Z,82.57
2023-05-08T02:39:58.808Z,83.22
2023-05-08T02:42:25.415Z,82.73
2023-05-08T02:44:51.766Z,82.85
2023-05-08T02:47:23.134Z,83.23
2023-05-08T02:50:14.475Z,82.94
2023-05-08T02:52:54.397Z,82.63
2023-05-08T02:55:36.400Z,82.92
2023-05-08T02:58:06.165Z,82.40
2023-05-08T03:00:40.625Z,82.73
2023-05-08T03:03:32.667Z,82.34
2023-05-08T03:06:02.547Z,82.50
2023-05-08T03:08:32.639Z,82.66
2023-05-08T03:11:04.335Z,82.35
2023-05-08T03:13:36.086Z,82.28
2023-05-08T03:16:04.731Z,82.26
2023-05-08T03:18:36.283Z,82.28
2023-05-08T03:21:05.652Z,82.36
2023-05-08T03:23:35.235Z,82.35
2023-05-08T03:26:03.417Z,82.33
2023-05-08T03:28:31.807Z,82.41
2023-05-08T03:30:59.468Z,82.25
2023-05-08T03:33:28.155Z,82.83
2023-05-08T03:35:56.280Z,82.39
2023-05-08T03:38:22.907Z,82.73
2023-05-08T03:40:49.616Z,82.22
2023-05-08T03:43:17.589Z,82.34
2023-05-08T03:45:44.904Z,82.27
2023-05-08T03:48:11.915Z,82.30
2023-05-08T03:50:38.653Z,81.95
2023-05-08T03:53:05.461Z,81.85
2023-05-08T03:55:32.261Z,81.88
2023-05-08T03:58:26.474Z,81.67
2023-05-08T04:00:58.658Z,81.28
2023-05-08T04:03:31.316Z,81.29
2023-05-08T04:06:30.781Z,80.72
2023-05-08T04:09:17.188Z,81.03
2023-05-08T04:12:04.986Z,81.21
2023-05-08T04:14:43.481Z,80.82
2023-05-08T04:17:14.790Z,80.79
2023-05-08T04:19:46.519Z,80.61
2023-05-08T04:22:13.693Z,80.18
2023-05-08T04:24:44.320Z,80.08
2023-05-08T04:27:12.708Z,79.71
2023-05-08T04:29:39.513Z,80.05
2023-05-08T04:32:07.056Z,79.77
2023-05-08T04:34:33.894Z,79.42
2023-05-08T04:37:00.935Z,79.23
2023-05-08T04:39:27.443Z,78.99
2023-05-08T04:41:55.735Z,78.19
2023-05-08T04:44:22.197Z,77.87
2023-05-08T04:46:50.109Z,78.37
2023-05-08T04:49:16.460Z,77.71
2023-05-08T04:51:43.111Z,77.90
2023-05-08T04:54:09.457Z,77.71
2023-05-08T04:56:36.076Z,77.10
2023-05-08T04:59:02.719Z,76.79
2023-05-08T05:01:29.209Z,76.87
2023-05-08T05:03:55.784Z,76.69
2023-05-08T05:06:22.315Z,75.97
2023-05-08T05:08:48.684Z,76.07
2023-05-08T05:11:15.133Z,75.55
2023-05-08T05:13:41.811Z,75.66
2023-05-08T05:16:08.195Z,75.59
2023-05-08T05:18:34.558Z,75.26
2023-05-08T05:21:00.917Z,75.18
2023-05-08T05:23:27.282Z,74.46
2023-05-08T05:25:53.688Z,74.49
2023-05-08T05:28:20.056Z,74.13
2023-05-08T05:30:48.025Z,74.03
2023-05-08T05:33:14.572Z,73.41
2023-05-08T05:35:41.008Z,73.55
2023-05-08T05:38:07.469Z,73.23
2023-05-08T05:40:34.393Z,72.98
2023-05-08T05:43:00.850Z,72.31
2023-05-08T05:45:27.329Z,71.90
2023-05-08T05:47:54.166Z,71.93
2023-05-08T05:50:21.566Z,71.59
2023-05-08T05:52:48.313Z,71.66
2023-05-08T05:55:15.254Z,70.98
2023-05-08T05:57:41.901Z,71.16
2023-05-08T06:00:08.949Z,70.89
2023-05-08T06:02:36.730Z,70.68
2023-05-08T06:05:04.037Z,70.05
2023-05-08T06:07:30.913Z,70.00
2023-05-08T06:09:57.340Z,69.91
2023-05-08T06:12:23.819Z,69.45
2023-05-08T06:14:51.971Z,69.13
2023-05-08T06:17:19.037Z,68.31
2023-05-08T06:19:50.283Z,68.99
2023-05-08T06:22:18.328Z,68.54
2023-05-08T06:24:45.251Z,68.39
2023-05-08T06:27:11.934Z,68.26
2023-05-08T06:29:38.623Z,68.39
2023-05-08T06:32:05.301Z,68.28
2023-05-08T06:34:31.712Z,67.34
2023-05-08T06:36:58.265Z,66.62
2023-05-08T06:39:24.781Z,67.21
2023-05-08T06:41:51.186Z,66.67
2023-05-08T06:44:17.527Z,67.04
2023-05-08T06:46:44.024Z,66.68
2023-05-08T06:49:10.559Z,66.80
2023-05-08T06:51:38.256Z,66.21
2023-05-08T06:54:08.275Z,65.96
2023-05-08T06:56:35.318Z,66.93
2023-05-08T06:59:08.274Z,65.61
2023-05-08T07:01:35.767Z,66.23
2023-05-08T07:04:02.321Z,64.90
2023-05-08T07:06:28.921Z,65.16
2023-05-08T07:08:55.510Z,65.28
2023-05-08T07:11:22.141Z,65.12
2023-05-08T07:13:48.714Z,64.79
2023-05-08T07:16:16.187Z,64.82
2023-05-08T07:18:43.619Z,64.65
2023-05-08T07:21:10.563Z,64.76
2023-05-08T07:23:37.004Z,63.99
2023-05-08T07:26:03.715Z,63.77
2023-05-08T07:28:30.122Z,63.66
2023-05-08T07:30:57.288Z,63.21
2023-05-08T07:33:23.727Z,63.22
2023-05-08T07:35:50.164Z,62.92
2023-05-08T07:38:16.559Z,62.59
2023-05-08T07:40:42.916Z,61.83
2023-05-08T07:43:09.577Z,61.64
2023-05-08T07:45:36.234Z,61.38
2023-05-08T07:48:02.733Z,61.15
2023-05-08T07:50:29.285Z,61.02
2023-05-08T07:52:55.745Z,60.37
2023-05-08T07:55:22.457Z,59.84
2023-05-08T07:57:48.839Z,58.81
2023-05-08T08:00:16.400Z,58.75
2023-05-08T08:02:43.544Z,57.70
2023-05-08T08:05:10.287Z,57.60
2023-05-08T08:07:36.727Z,57.69
2023-05-08T08:10:06.489Z,56.30
2023-05-08T08:12:32.973Z,56.77
2023-05-08T08:14:59.345Z,55.84
2023-05-08T08:17:28.464Z,56.72
2023-05-08T08:19:55.219Z,56.27
2023-05-08T08:22:21.933Z,56.70
2023-05-08T08:24:48.419Z,54.76
2023-05-08T08:27:14.825Z,54.77
2023-05-08T08:29:41.265Z,54.29
2023-05-08T08:32:07.657Z,54.07
2023-05-08T08:34:34.552Z,53.33
2023-05-08T08:37:00.922Z,52.58
2023-05-08T08:39:27.538Z,52.19
2023-05-08T08:41:54.039Z,52.17
2023-05-08T08:44:20.475Z,51.81
2023-05-08T08:46:51.842Z,51.45
2023-05-08T08:49:24.396Z,50.67
2023-05-08T08:51:53.422Z,51.25
2023-05-08T08:54:34.676Z,51.12
2023-05-08T08:57:05.735Z,50.86
2023-05-08T08:59:32.925Z,50.09
2023-05-08T09:02:05.813Z,49.83
2023-05-08T09:04:32.288Z,49.37
2023-05-08T09:06:59.173Z,49.33
2023-05-08T09:09:25.948Z,48.59
2023-05-08T09:11:53.288Z,47.38
2023-05-08T09:14:20.137Z,48.21
2023-05-08T09:16:46.738Z,47.96
2023-05-08T09:19:16.845Z,47.73
2023-05-08T09:21:43.858Z,46.69
2023-05-08T09:24:10.886Z,46.50
2023-05-08T09:26:40.819Z,46.13
2023-05-08T09:29:23.788Z,46.55
2023-05-08T09:31:52.508Z,46.48
2023-05-08T09:34:28.251Z,46.51
2023-05-08T09:36:56.247Z,46.01
2023-05-08T09:39:24.895Z,44.35
2023-05-08T09:42:00.693Z,44.50
2023-05-08T09:44:27.291Z,44.23
2023-05-08T09:47:10.952Z,44.81
2023-05-08T09:49:39.804Z,44.73
2023-05-08T09:52:15.735Z,44.27
2023-05-08T09:54:42.254Z,44.61
2023-05-08T09:57:13.045Z,44.53
2023-05-08T09:59:39.582Z,44.63
2023-05-08T10:02:12.777Z,44.64
2023-05-08T10:04:39.633Z,44.35
2023-05-08T10:07:06.060Z,43.79
2023-05-08T10:09:46.879Z,44.53
2023-05-08T10:12:17.003Z,44.31
2023-05-08T10:14:46.387Z,45.04
2023-05-08T10:17:18.138Z,45.11
2023-05-08T10:19:47.629Z,45.46
2023-05-08T10:22:15.801Z,45.03
2023-05-08T10:24:44.273Z,44.41
2023-05-08T10:27:30.401Z,43.17
2023-05-08T10:30:00.263Z,43.73
2023-05-08T10:32:30.650Z,43.36
2023-05-08T10:34:59.843Z,42.99
2023-05-08T10:37:29.545Z,43.59
2023-05-08T10:39:57.994Z,43.87
2023-05-08T10:42:25.799Z,44.89
2023-05-08T10:44:53.119Z,43.89
2023-05-08T10:47:36.255Z,42.89
2023-05-08T10:50:34.640Z,42.30
2023-05-08T10:53:11.547Z,42.34
2023-05-08T10:55:39.528Z,42.09
2023-05-08T10:58:09.282Z,42.58
2023-05-08T11:00:56.819Z,43.04
2023-05-08T11:03:31.356Z,42.08
2023-05-08T11:06:00.207Z,40.13
2023-05-08T11:08:28.542Z,40.57
2023-05-08T11:11:01.793Z,40.94
2023-05-08T11:13:37.702Z,40.88
2023-05-08T11:16:10.950Z,41.38
2023-05-08T11:18:49.061Z,41.55
2023-05-08T11:21:22.116Z,39.57
2023-05-08T11:23:56.781Z,39.79
2023-05-08T11:26:40.410Z,40.80
2023-05-08T11:29:17.060Z,41.47
2023-05-08T11:31:50.457Z,41.61
2023-05-08T11:34:41.904Z,41.26
2023-05-08T11:37:19.517Z,41.06
2023-05-08T11:39:49.785Z,41.58
2023-05-08T11:42:25.571Z,40.38
2023-05-08T11:45:05.048Z,40.00
2023-05-08T11:47:40.033Z,39.30
2023-05-08T11:50:08.616Z,39.54
2023-05-08T11:52:36.316Z,39.33
2023-05-08T11:55:07.952Z,39.82
2023-05-08T11:57:34.492Z,39.68
2023-05-08T12:00:08.777Z,39.26
2023-05-08T12:02:36.266Z,39.77
2023-05-08T12:05:03.528Z,38.44
2023-05-08T12:07:31.277Z,38.30
2023-05-08T12:09:57.876Z,38.92
2023-05-08T12:12:35.487Z,39.32
2023-05-08T12:15:01.886Z,38.79
2023-05-08T12:17:28.250Z,38.64
2023-05-08T12:19:56.482Z,37.91
2023-05-08T12:22:22.835Z,37.50
2023-05-08T12:24:49.211Z,37.77
2023-05-08T12:27:15.924Z,35.68
2023-05-08T12:29:45.498Z,35.01
2023-05-08T12:32:11.969Z,32.65
2023-05-08T12:34:38.364Z,33.09
2023-05-08T12:37:06.028Z,31.79
2023-05-08T12:39:37.421Z,31.75
2023-05-08T12:42:04.262Z,31.64
2023-05-08T12:44:30.640Z,31.59
2023-05-08T12:46:57.737Z,32.40
2023-05-08T12:49:26.744Z,34.79
2023-05-08T12:52:01.484Z,32.63
2023-05-08T12:54:39.407Z,32.25
2023-05-08T12:57:12.914Z,31.50
2023-05-08T12:59:39.767Z,30.95
2023-05-08T13:02:16.094Z,32.06
2023-05-08T13:04:42.937Z,30.91
2023-05-08T13:07:09.481Z,31.59
2023-05-08T13:09:36.474Z,30.87
2023-05-08T13:12:02.995Z,30.54
2023-05-08T13:14:29.378Z,30.55
2023-05-08T13:16:55.912Z,30.14
2023-05-08T13:19:22.487Z,30.35
2023-05-08T13:21:49.431Z,31.32
2023-05-08T13:24:16.460Z,31.79
2023-05-08T13:26:44.157Z,30.44
2023-05-08T13:29:10.691Z,30.69
2023-05-08T13:31:37.158Z,30.24
2023-05-08T13:34:03.601Z,30.46
2023-05-08T13:36:29.960Z,29.42
2023-05-08T13:38:57.406Z,29.71
2023-05-08T13:41:23.810Z,28.63
2023-05-08T13:43:50.163Z,28.83
2023-05-08T13:46:16.658Z,28.73
2023-05-08T13:48:43.106Z,28.24
2023-05-08T13:51:09.484Z,26.73
2023-05-08T13:53:35.956Z,26.08
2023-05-08T13:56:02.769Z,26.75
2023-05-08T13:58:29.313Z,31.85
2023-05-08T14:00:55.700Z,35.72
2023-05-08T14:03:22.175Z,36.46
2023-05-08T14:05:48.555Z,35.92
2023-05-08T14:08:14.896Z,36.74
2023-05-08T14:10:41.292Z,36.62
2023-05-08T14:13:07.786Z,35.41
2023-05-08T14:15:37.260Z,36.49
2023-05-08T14:18:04.692Z,37.03
2023-05-08T14:20:31.118Z,37.08
2023-05-08T14:23:00.065Z,36.81
2023-05-08T14:25:26.751Z,36.41
2023-05-08T14:27:53.295Z,37.67
2023-05-08T14:30:19.650Z,37.72
2023-05-08T14:32:46.415Z,37.19
2023-05-08T14:35:14.561Z,36.14
2023-05-08T14:37:41.342Z,35.85
2023-05-08T14:40:08.401Z,36.54
2023-05-08T14:42:34.857Z,36.77
2023-05-08T14:45:01.295Z,36.89
2023-05-08T14:47:27.803Z,37.08
2023-05-08T14:49:54.271Z,36.41
2023-05-08T14:52:20.788Z,36.37
2023-05-08T14:54:52.884Z,36.63
2023-05-08T14:57:20.596Z,36.24
2023-05-08T14:59:55.038Z,36.16
2023-05-08T15:02:22.755Z,35.93
2023-05-08T15:04:49.198Z,36.19
2023-05-08T15:07:15.586Z,36.28
2023-05-08T15:09:42.017Z,35.60
2023-05-08T15:12:08.362Z,35.00
2023-05-08T15:14:34.750Z,35.16
2023-05-08T15:17:01.164Z,35.65
2023-05-08T15:19:27.502Z,35.12
2023-05-08T15:21:53.888Z,35.12
2023-05-08T15:24:20.308Z,34.97
2023-05-08T15:26:46.663Z,34.46
2023-05-08T15:29:13.032Z,34.14
2023-05-08T15:31:39.527Z,34.66
2023-05-08T15:34:06.111Z,34.56
2023-05-08T15:36:34.090Z,34.71
2023-05-08T15:39:00.544Z,34.06
2023-05-08T15:41:26.909Z,34.09
2023-05-08T15:43:53.591Z,34.90
2023-05-08T15:46:20.135Z,34.55
2023-05-08T15:48:46.694Z,34.38
2023-05-08T15:51:13.089Z,34.76
2023-05-08T15:53:39.604Z,34.42
2023-05-08T15:56:06.350Z,35.09
2023-05-08T15:58:32.809Z,34.37
2023-05-08T16:00:59.219Z,34.24
2023-05-08T16:03:25.740Z,33.67
2023-05-08T16:05:52.215Z,34.18
2023-05-08T16:08:18.621Z,34.11
2023-05-08T16:10:45.087Z,34.08
2023-05-08T16:13:11.487Z,34.53
2023-05-08T16:15:37.980Z,34.89
2023-05-08T16:18:06.034Z,34.81
2023-05-08T16:20:34.994Z,35.15
2023-05-08T16:23:02.543Z,34.63
2023-05-08T16:25:28.906Z,34.54
2023-05-08T16:27:55.272Z,35.39
2023-05-08T16:30:21.627Z,35.50
2023-05-08T16:32:48.069Z,35.37
2023-05-08T16:35:15.084Z,35.51
2023-05-08T16:37:42.013Z,35.18
2023-05-08T16:40:09.564Z,35.04
2023-05-08T16:42:36.129Z,34.65
2023-05-08T16:45:04.263Z,34.84
2023-05-08T16:47:30.759Z,35.07
2023-05-08T16:49:57.467Z,35.82
2023-05-08T16:52:23.871Z,35.92
2023-05-08T16:54:50.255Z,35.54
2023-05-08T16:57:16.702Z,35.96
2023-05-08T16:59:43.151Z,36.07
2023-05-08T17:02:09.748Z,35.21
2023-05-08T17:04:36.342Z,35.03
2023-05-08T17:07:05.004Z,35.60
2023-05-08T17:09:31.961Z,36.25
2023-05-08T17:12:01.820Z,35.16
2023-05-08T17:14:28.298Z,33.44
2023-05-08T17:16:54.888Z,32.87
2023-05-08T17:19:21.252Z,32.44
2023-05-08T17:21:47.787Z,32.46
2023-05-08T17:24:14.149Z,33.38
2023-05-08T17:26:40.505Z,35.43
2023-05-08T17:29:06.933Z,37.23
2023-05-08T17:31:33.336Z,38.91
2023-05-08T17:33:59.720Z,39.53
2023-05-08T17:36:26.265Z,40.63
2023-05-08T17:38:52.683Z,40.99
2023-05-08T17:41:19.058Z,41.48
2023-05-08T17:43:45.421Z,41.77
2023-05-08T17:46:11.956Z,42.06
2023-05-08T17:48:38.362Z,42.49
2023-05-08T17:51:04.919Z,42.48
2023-05-08T17:53:32.500Z,43.02
2023-05-08T17:55:59.008Z,43.15
2023-05-08T17:58:25.531Z,43.47
2023-05-08T18:00:52.379Z,43.16
2023-05-08T18:03:18.840Z,42.66
2023-05-08T18:05:45.481Z,41.89
2023-05-08T18:08:11.928Z,41.45
2023-05-08T18:10:39.583Z,41.40
2023-05-08T18:13:06.111Z,41.55
2023-05-08T18:15:34.500Z,42.12
2023-05-08T18:18:00.936Z,42.56
2023-05-08T18:20:27.374Z,42.98
2023-05-08T18:22:53.782Z,43.06
2023-05-08T18:25:20.559Z,43.35
2023-05-08T18:27:48.736Z,43.72
2023-05-08T18:30:15.427Z,44.51
2023-05-08T18:32:42.091Z,45.56
2023-05-08T18:35:08.687Z,45.94
2023-05-08T18:37:35.111Z,45.92
2023-05-08T18:40:01.541Z,46.32
2023-05-08T18:42:28.046Z,46.93
2023-05-08T18:44:55.774Z,47.72
2023-05-08T18:47:22.552Z,47.98
2023-05-08T18:49:51.442Z,48.15
2023-05-08T18:52:17.821Z,48.87
2023-05-08T18:54:44.185Z,49.31
2023-05-08T18:57:10.550Z,49.72
2023-05-08T18:59:36.916Z,49.80
2023-05-08T19:02:03.277Z,49.93
2023-05-08T19:04:29.667Z,50.58
2023-05-08T19:06:56.116Z,50.57
2023-05-08T19:09:23.028Z,50.95
2023-05-08T19:11:49.469Z,51.14
2023-05-08T19:14:15.844Z,51.31
2023-05-08T19:16:42.215Z,51.64
2023-05-08T19:19:08.608Z,51.99
2023-05-08T19:21:35.085Z,52.41
2023-05-08T19:24:01.530Z,52.36
2023-05-08T19:26:27.903Z,52.55
2023-05-08T19:28:54.609Z,52.74
2023-05-08T19:31:21.008Z,52.65
2023-05-08T19:33:48.605Z,53.17
2023-05-08T19:36:15.051Z,53.22
2023-05-08T19:38:41.451Z,53.38
2023-05-08T19:41:07.863Z,53.67
2023-05-08T19:43:34.573Z,54.32
2023-05-08T19:46:01.400Z,53.86
2023-05-08T19:48:27.804Z,53.99
2023-05-08T19:50:55.235Z,54.06
2023-05-08T19:53:22.744Z,54.74
2023-05-08T19:55:49.439Z,54.92
2023-05-08T19:58:17.439Z,55.26
2023-05-08T20:03:17.172Z,55.12
2023-05-08T20:05:43.600Z,55.32
2023-05-08T20:08:09.991Z,55.78
2023-05-08T20:10:36.390Z,55.73
2023-05-08T20:13:03.116Z,55.73
2023-05-08T20:15:29.643Z,55.91
2023-05-08T20:17:56.077Z,56.05
2023-05-08T20:20:22.538Z,56.37
2023-05-08T20:22:48.913Z,56.64
2023-05-08T20:25:15.322Z,56.85
2023-05-08T20:27:41.674Z,57.04
2023-05-08T20:30:08.402Z,57.12
2023-05-08T20:32:34.991Z,57.11
2023-05-08T20:35:01.776Z,57.41
2023-05-08T20:37:28.182Z,57.66
2023-05-08T20:39:54.680Z,58.17
2023-05-08T20:42:21.025Z,57.76
2023-05-08T20:44:47.449Z,57.73
2023-05-08T20:47:13.833Z,57.92
2023-05-08T20:49:41.196Z,58.11
2023-05-08T20:52:07.534Z,58.03
2023-05-08T20:54:33.981Z,58.15
2023-05-08T20:57:01.897Z,58.17
2023-05-08T20:59:28.276Z,58.25
2023-05-08T21:01:54.936Z,57.92
2023-05-08T21:04:21.345Z,58.45
2023-05-08T21:06:48.343Z,58.62
2023-05-08T21:09:16.257Z,58.72
2023-05-08T21:11:42.612Z,59.25
2023-05-08T21:14:08.961Z,59.55
2023-05-08T21:16:35.946Z,60.07
2023-05-08T21:19:02.315Z,60.40
2023-05-08T21:21:28.677Z,60.36
2023-05-08T21:23:55.086Z,60.76
2023-05-08T21:26:23.755Z,60.93
2023-05-08T21:28:52.292Z,61.20
2023-05-08T21:31:19.022Z,61.89
2023-05-08T21:33:45.526Z,62.13
2023-05-08T21:36:11.949Z,62.21
2023-05-08T21:38:38.610Z,62.32
2023-05-08T21:41:08.351Z,62.73
2023-05-08T21:43:36.042Z,62.96
2023-05-08T21:46:07.135Z,63.05
2023-05-08T21:48:33.917Z,63.09
2023-05-08T21:51:01.104Z,63.58
2023-05-08T21:53:27.547Z,63.77
2023-05-08T21:55:54.055Z,63.68
2023-05-08T21:58:20.717Z,64.03
2023-05-08T22:00:47.141Z,64.36
2023-05-08T22:03:13.846Z,64.81
2023-05-08T22:05:40.374Z,64.50
2023-05-08T22:08:06.845Z,64.59
2023-05-08T22:10:33.282Z,64.86
2023-05-08T22:13:01.380Z,64.71
2023-05-08T22:15:30.606Z,65.03
2023-05-08T22:17:57.474Z,64.51
2023-05-08T22:20:24.020Z,64.07
2023-05-08T22:22:50.638Z,64.45
2023-05-08T22:25:17.037Z,64.46
2023-05-08T22:27:43.392Z,64.67
2023-05-08T22:30:09.923Z,65.00
2023-05-08T22:32:36.656Z,64.94
2023-05-08T22:35:03.401Z,64.64
2023-05-08T22:37:30.393Z,64.96
2023-05-08T22:39:57.068Z,64.12
2023-05-08T22:42:24.302Z,64.05
2023-05-08T22:44:50.936Z,63.85
2023-05-08T22:47:18.439Z,63.76
2023-05-08T22:49:45.088Z,63.65
2023-05-08T22:52:11.449Z,63.61
2023-05-08T22:54:38.281Z,62.95
2023-05-08T22:57:04.652Z,63.02
2023-05-08T22:59:31.355Z,62.33
2023-05-08T23:01:57.741Z,62.30
2023-05-08T23:04:24.155Z,61.86
2023-05-08T23:06:51.126Z,61.23
2023-05-08T23:09:17.793Z,61.14
2023-05-08T23:11:44.239Z,60.72
2023-05-08T23:14:10.614Z,60.90
2023-05-08T23:16:37.070Z,60.75
2023-05-08T23:19:04.800Z,60.76
2023-05-08T23:21:32.085Z,61.14
2023-05-08T23:23:58.942Z,60.72
2023-05-08T23:26:26.066Z,60.81
2023-05-08T23:28:52.565Z,61.01
2023-05-08T23:31:18.949Z,60.88
2023-05-08T23:33:45.733Z,61.57
2023-05-08T23:36:12.150Z,61.59
2023-05-08T23:38:38.552Z,61.41
2023-05-08T23:41:04.930Z,61.31
2023-05-08T23:43:31.404Z,60.94
2023-05-08T23:45:58.063Z,59.97
2023-05-08T23:48:25.782Z,60.29
2023-05-08T23:50:52.506Z,60.32
2023-05-08T23:53:19.178Z,59.97
2023-05-08T23:55:45.576Z,60.16
2023-05-08T23:58:11.952Z,59.70
